RJAA/NRT METAR and TAF weather

Enter ICAO airport designator
Station Type Date Time Source
RJAA METAR 2021/02/25 16:00 UTC NOAA

RJAA 251600Z 33004KT 9999 FEW020 SCT050 BKN120 06/03 Q1020 NOSIG


Station Type Date Time Source
RJAA Decoded METAR 2021/02/25 16:00 UTC NOAA

New Tokyo Inter-National Airport, Japan (RJAA) 35-46N 140-23E 44M
Feb 25, 2021 - 11:00 AM EST / 2021.02.25 1600 UTC
Wind: from the NNW (330 degrees) at 5 MPH (4 KT):0
Visibility: greater than 7 mile(s):0
Sky conditions: mostly cloudy
Temperature: 42 F (6 C)
Dew Point: 37 F (3 C)
Relative Humidity: 81%
Pressure (altimeter): 30.12 in. Hg (1020 hPa)
ob: RJAA 251600Z 33004KT 9999 FEW020 SCT050 BKN120 06/03 Q1020 NOSIG
cycle: 16

Station Type Date Time Source
RJAA TAF 2021/02/25 12:13 UTC NOAA

TAF RJAA 251105Z 2512/2618 12004KT 9999 FEW030 SCT045
BECMG 2516/2518 33006KT

Example: see airport list